Time;durP1;ratioP1;P1;durP2;ratioP2;P2;SDS_P1;SDS_P2;PMS_P1;PMS_P2;Temp;Humidity;BMP_temperature;BMP_pressure;BME280_temperature;BME280_humidity;BME280_pressure;Samples;Min_cycle;Max_cycle;Signal;HPM_P1;HPM_P2
2022/10/24 00:01:12;;;;;;;6.53;4.63;;;;;;;11.26;100.00;99746.78;1678001;85;21309;-57
2022/10/24 00:03:39;;;;;;;8.03;5.40;;;;;;;11.23;100.00;99744.56;1669331;85;21781;-65
2022/10/24 00:06:07;;;;;;;8.00;5.23;;;;;;;11.27;100.00;99744.97;1649979;85;20970;-61
2022/10/24 00:08:35;;;;;;;8.17;4.93;;;;;;;11.23;100.00;99741.95;1650330;86;21102;-59
2022/10/24 00:11:13;;;;;;;9.57;4.90;;;;;;;11.18;100.00;99743.06;1650054;86;21018;-57
2022/10/24 00:13:40;;;;;;;6.67;5.03;;;;;;;11.14;100.00;99752.30;1649660;86;21890;-59
2022/10/24 00:16:09;;;;;;;6.20;4.80;;;;;;;11.18;100.00;99756.11;1650141;86;21432;-58
2022/10/24 00:18:36;;;;;;;7.07;4.40;;;;;;;11.15;100.00;99752.08;1649937;87;20991;-58
2022/10/24 00:21:04;;;;;;;7.43;4.40;;;;;;;11.09;100.00;99760.69;1649684;86;21057;-58
2022/10/24 00:23:33;;;;;;;6.03;4.07;;;;;;;11.13;100.00;99759.29;1649592;86;22190;-64
2022/10/24 00:26:02;;;;;;;5.80;3.27;;;;;;;11.13;100.00;99759.29;1650044;85;21557;-58
2022/10/24 00:28:31;;;;;;;4.17;3.07;;;;;;;11.16;100.00;99760.71;1650045;86;21008;-59
2022/10/24 00:30:59;;;;;;;4.70;2.80;;;;;;;11.16;100.00;99754.98;1650224;85;20975;-59
2022/10/24 00:33:26;;;;;;;4.03;2.40;;;;;;;11.12;100.00;99756.39;1650041;86;21029;-57
2022/10/24 00:35:54;;;;;;;3.37;2.17;;;;;;;11.09;100.00;99755.98;1649845;86;21037;-58
2022/10/24 00:38:21;;;;;;;4.07;2.30;;;;;;;11.08;100.00;99756.98;1650316;87;21840;-58
2022/10/24 00:40:50;;;;;;;4.40;2.10;;;;;;;11.06;100.00;99753.77;1650079;87;20943;-59
2022/10/24 00:43:24;;;;;;;5.27;2.37;;;;;;;11.05;100.00;99763.90;1649876;87;20963;-57
2022/10/24 00:45:57;;;;;;;3.50;2.10;;;;;;;11.02;100.00;99764.29;1649563;87;20915;-66
2022/10/24 00:48:41;;;;;;;3.43;2.33;;;;;;;11.08;100.00;99768.22;1650054;86;21287;-58
2022/10/24 00:51:26;;;;;;;3.23;1.87;;;;;;;11.07;100.00;99767.13;1650205;85;21584;-57
2022/10/24 00:54:03;;;;;;;2.93;1.97;;;;;;;11.03;100.00;99768.53;1649519;86;21128;-59
2022/10/24 00:56:35;;;;;;;3.53;1.70;;;;;;;10.95;100.00;99768.20;1650151;85;20978;-59
2022/10/24 00:59:03;;;;;;;3.77;1.40;;;;;;;10.94;100.00;99772.59;1650067;86;21126;-59
2022/10/24 01:01:32;;;;;;;3.23;2.03;;;;;;;10.89;100.00;99767.17;1649531;86;21493;-59
2022/10/24 01:04:00;;;;;;;3.03;1.70;;;;;;;10.93;100.00;99770.20;1650019;86;21848;-59
2022/10/24 01:07:00;;;;;;;3.20;1.80;;;;;;;10.98;100.00;99771.70;1650135;87;21015;-58
2022/10/24 01:09:47;;;;;;;3.30;1.60;;;;;;;10.96;100.00;99769.30;1576378;90;21112;-59
2022/10/24 01:12:35;;;;;;;3.40;1.90;;;;;;;10.98;100.00;99768.30;1640193;86;21029;-59
2022/10/24 01:15:27;;;;;;;2.37;1.43;;;;;;;10.92;100.00;99765.48;1636705;87;21078;-58
2022/10/24 01:18:24;;;;;;;3.02;1.92;;;;;;;10.96;100.00;99764.09;1650153;86;21668;-58
2022/10/24 01:21:14;;;;;;;3.30;1.63;;;;;;;10.89;100.00;99767.17;1650167;86;20900;-58
2022/10/24 01:24:11;;;;;;;2.62;1.80;;;;;;;10.87;100.00;99771.80;1649638;86;21567;-60
2022/10/24 01:27:00;;;;;;;3.67;1.97;;;;;;;10.81;100.00;99768.66;1640059;86;20975;-59
2022/10/24 01:30:02;;;;;;;4.43;2.20;;;;;;;10.81;100.00;99778.30;1650061;86;21314;-58
2022/10/24 01:32:40;;;;;;;4.67;2.55;;;;;;;10.77;100.00;99786.20;1649964;86;21759;-67
2022/10/24 01:35:25;;;;;;;4.07;2.73;;;;;;;10.79;100.00;99791.51;1639308;87;21554;-59
2022/10/24 01:38:14;;;;;;;5.57;2.70;;;;;;;10.82;100.00;99797.64;1649784;87;21532;-59
2022/10/24 01:40:55;;;;;;;6.50;3.40;;;;;;;10.78;100.00;99796.42;1650344;87;22220;-58
2022/10/24 01:43:46;;;;;;;5.20;3.10;;;;;;;10.78;100.00;99796.42;1650476;86;21552;-59
2022/10/24 01:46:20;;;;;;;5.37;2.90;;;;;;;10.76;100.00;99793.70;1649977;86;21410;-58
2022/10/24 01:48:52;;;;;;;5.03;3.20;;;;;;;10.77;100.00;99805.76;1649841;87;20986;-58
2022/10/24 01:51:19;;;;;;;4.50;2.70;;;;;;;10.86;100.00;99807.98;1649246;85;21672;-68
2022/10/24 01:53:47;;;;;;;5.13;2.90;;;;;;;10.89;100.00;99808.09;1649943;87;21571;-58
2022/10/24 01:56:15;;;;;;;5.50;3.10;;;;;;;10.89;100.00;99808.90;1650183;87;21011;-59
2022/10/24 01:58:42;;;;;;;4.90;3.33;;;;;;;10.92;100.00;99807.21;1649976;87;21747;-59
2022/10/24 02:01:13;;;;;;;5.57;3.30;;;;;;;10.89;100.00;99809.41;1649962;85;22153;-59
2022/10/24 02:03:47;;;;;;;6.00;3.10;;;;;;;10.89;100.00;99809.41;1650600;85;21116;-59
2022/10/24 02:06:28;;;;;;;7.27;3.47;;;;;;;10.85;100.00;99819.42;1677804;85;21704;-59
2022/10/24 02:08:58;;;;;;;4.90;3.10;;;;;;;10.83;100.00;99824.01;1677986;85;21741;-58
2022/10/24 02:11:25;;;;;;;6.93;3.37;;;;;;;10.87;100.00;99830.47;1677340;85;21875;-58
2022/10/24 02:13:57;;;;;;;6.10;3.70;;;;;;;10.89;100.00;99834.17;1677885;85;21025;-58
2022/10/24 02:16:24;;;;;;;5.03;3.30;;;;;;;10.90;100.00;99829.25;1677860;84;21652;-58
2022/10/24 02:18:53;;;;;;;4.67;2.83;;;;;;;10.87;100.00;99825.73;1677972;84;20958;-60
2022/10/24 02:21:50;;;;;;;4.90;3.00;;;;;;;10.83;100.00;99827.12;1677457;85;21026;-59
2022/10/24 02:24:23;;;;;;;6.23;2.83;;;;;;;10.71;100.00;99826.88;1677847;84;21664;-58
2022/10/24 02:27:03;;;;;;;5.67;3.00;;;;;;;10.74;100.00;99833.02;1677521;84;20902;-58
2022/10/24 02:29:44;;;;;;;4.33;2.63;;;;;;;10.74;100.00;99838.23;1678021;84;21026;-58
2022/10/24 02:32:19;;;;;;;5.97;2.52;;;;;;;10.73;100.00;99832.72;1677922;84;21092;-58
2022/10/24 02:34:46;;;;;;;4.23;2.77;;;;;;;10.70;100.00;99843.02;1677907;85;21041;-60
2022/10/24 02:37:13;;;;;;;4.37;3.07;;;;;;;10.67;100.00;99838.69;1678197;84;21124;-58
2022/10/24 02:39:41;;;;;;;4.57;2.20;;;;;;;10.65;100.00;99849.83;1678130;84;21460;-58
2022/10/24 02:42:09;;;;;;;3.50;2.37;;;;;;;10.63;100.00;99850.50;1677885;85;21445;-60
2022/10/24 02:44:37;;;;;;;4.00;2.60;;;;;;;10.63;100.00;99855.22;1677623;84;21029;-60
2022/10/24 02:47:05;;;;;;;4.43;2.10;;;;;;;10.59;100.00;99863.62;1651133;85;21149;-58
2022/10/24 02:49:35;;;;;;;3.27;2.30;;;;;;;10.60;100.00;99858.70;1677807;85;20923;-58
2022/10/24 02:52:02;;;;;;;3.60;2.30;;;;;;;10.61;100.00;99862.44;1678043;85;21602;-58
2022/10/24 02:54:30;;;;;;;5.67;2.30;;;;;;;10.69;100.00;99867.48;1677162;85;22261;-59
2022/10/24 02:57:01;;;;;;;3.20;2.30;;;;;;;10.69;100.00;99867.48;1677874;85;21077;-58
2022/10/24 02:59:29;;;;;;;3.85;1.92;;;;;;;10.65;100.00;99862.36;1678170;85;21628;-58
2022/10/24 03:01:57;;;;;;;3.10;2.10;;;;;;;10.60;100.00;99871.73;1677761;84;21254;-59
2022/10/24 03:04:24;;;;;;;3.80;2.10;;;;;;;10.58;100.00;99871.94;1671925;84;21744;-66
2022/10/24 03:06:52;;;;;;;2.87;2.10;;;;;;;10.55;100.00;99881.94;1649987;86;21661;-58
2022/10/24 03:09:21;;;;;;;3.27;2.23;;;;;;;10.55;100.00;99879.34;1649988;86;20967;-58
2022/10/24 03:11:49;;;;;;;3.03;1.83;;;;;;;10.52;100.00;99877.11;1649913;85;20947;-58
2022/10/24 03:14:17;;;;;;;3.17;1.93;;;;;;;10.49;100.00;99883.50;1650083;87;21312;-57
2022/10/24 03:16:44;;;;;;;2.50;1.87;;;;;;;10.48;100.00;99881.39;1649418;87;21010;-59
2022/10/24 03:19:12;;;;;;;3.53;2.50;;;;;;;10.53;100.00;99889.96;1650186;86;22134;-58
2022/10/24 03:21:41;;;;;;;4.23;2.47;;;;;;;10.63;100.00;99885.19;1650058;86;21700;-59
2022/10/24 03:24:09;;;;;;;3.43;2.30;;;;;;;10.63;100.00;99885.19;1649873;85;21064;-58
2022/10/24 03:26:36;;;;;;;3.60;2.63;;;;;;;10.59;100.00;99894.39;1649505;87;21981;-60
2022/10/24 03:29:05;;;;;;;3.60;2.50;;;;;;;10.71;100.00;99895.45;1649726;86;22614;-57
2022/10/24 03:31:32;;;;;;;3.57;2.67;;;;;;;10.73;100.00;99903.10;1649792;86;21791;-58
2022/10/24 03:33:59;;;;;;;3.43;2.40;;;;;;;10.83;100.00;99897.52;1650169;87;21568;-58
2022/10/24 03:36:27;;;;;;;3.97;3.20;;;;;;;10.58;100.00;99905.82;1649632;87;20911;-66
2022/10/24 03:38:54;;;;;;;3.97;2.77;;;;;;;10.58;100.00;99902.41;1649923;86;21370;-57
2022/10/24 03:41:23;;;;;;;5.13;3.00;;;;;;;10.71;100.00;99907.69;1649873;87;38686;-58
2022/10/24 03:43:50;;;;;;;3.70;2.77;;;;;;;10.60;100.00;99903.81;1650036;87;22254;-58
2022/10/24 03:46:19;;;;;;;3.93;2.90;;;;;;;10.65;100.00;99912.38;1649696;86;21775;-60
2022/10/24 03:48:46;;;;;;;4.47;2.33;;;;;;;10.65;100.00;99909.27;1650022;87;22199;-58
2022/10/24 03:51:14;;;;;;;3.33;2.57;;;;;;;10.65;100.00;99921.00;1650036;85;21708;-58
2022/10/24 03:53:41;;;;;;;4.97;2.30;;;;;;;10.60;100.00;99919.95;1650187;86;21617;-57
2022/10/24 03:56:09;;;;;;;4.33;2.13;;;;;;;10.54;100.00;99920.23;1649747;86;21670;-67
2022/10/24 03:58:37;;;;;;;5.87;2.33;;;;;;;10.51;100.00;99923.72;1649590;86;21814;-58
2022/10/24 04:01:05;;;;;;;4.20;3.13;;;;;;;10.60;100.00;99927.27;1650001;85;20963;-58
2022/10/24 04:03:32;;;;;;;3.77;2.57;;;;;;;10.50;100.00;99927.33;1649881;87;22738;-58
2022/10/24 04:05:59;;;;;;;3.90;2.63;;;;;;;10.32;100.00;99930.39;1669830;85;20939;-58
2022/10/24 04:08:28;;;;;;;4.87;2.87;;;;;;;10.30;100.00;99925.86;1677178;84;21620;-59
2022/10/24 04:10:55;;;;;;;3.33;2.33;;;;;;;10.22;100.00;99937.19;1677332;84;21777;-58
2022/10/24 04:13:23;;;;;;;3.80;2.73;;;;;;;10.15;100.00;99938.94;1677798;85;21668;-58
2022/10/24 04:15:51;;;;;;;5.13;2.80;;;;;;;10.21;100.00;99940.80;1677750;85;21274;-59
2022/10/24 04:18:19;;;;;;;4.30;3.00;;;;;;;10.25;100.00;99942.06;1677506;85;20962;-67
2022/10/24 04:21:48;;;;;;;4.77;3.57;;;;;;;10.19;100.00;99944.08;1677778;84;22236;-58
2022/10/24 04:24:16;;;;;;;5.13;2.73;;;;;;;10.23;100.00;99941.43;1677944;84;21663;-58
2022/10/24 04:26:43;;;;;;;3.73;2.70;;;;;;;10.16;100.00;99950.48;1677266;85;22224;-59
2022/10/24 04:29:11;;;;;;;3.97;2.53;;;;;;;10.16;100.00;99950.48;1677754;84;21081;-59
2022/10/24 04:31:38;;;;;;;3.97;2.70;;;;;;;10.21;100.00;99956.42;1677425;84;21838;-64
2022/10/24 04:34:05;;;;;;;8.00;3.10;;;;;;;10.29;100.00;99962.83;1677874;84;21842;-58
2022/10/24 04:36:33;;;;;;;5.83;3.20;;;;;;;10.21;100.00;99966.84;1677879;84;21748;-58
2022/10/24 04:39:00;;;;;;;5.13;3.47;;;;;;;10.26;100.00;99960.59;1677864;84;21637;-59
2022/10/24 04:41:27;;;;;;;5.53;3.47;;;;;;;10.38;100.00;99958.28;1678278;85;21720;-58
2022/10/24 04:43:54;;;;;;;5.47;3.93;;;;;;;10.33;100.00;99961.95;1677436;84;21725;-58
2022/10/24 04:46:21;;;;;;;7.07;3.80;;;;;;;10.13;100.00;99970.38;1678007;84;22169;-60
2022/10/24 04:48:49;;;;;;;5.70;3.87;;;;;;;10.12;100.00;99971.89;1678042;85;21764;-58
2022/10/24 04:51:16;;;;;;;6.37;4.63;;;;;;;10.15;100.00;99973.62;1677945;85;21692;-58
2022/10/24 04:53:44;;;;;;;6.43;4.27;;;;;;;10.05;100.00;99974.92;1677785;84;22471;-58
2022/10/24 04:56:11;;;;;;;5.53;3.93;;;;;;;10.03;100.00;99985.50;1677186;85;21598;-58
2022/10/24 04:58:39;;;;;;;6.13;4.23;;;;;;;9.97;100.00;99989.67;1677622;84;21763;-58
2022/10/24 05:01:06;;;;;;;5.00;3.80;;;;;;;9.98;100.00;99993.08;1677991;84;21724;-57
2022/10/24 05:03:33;;;;;;;7.63;4.57;;;;;;;9.96;100.00;99998.48;1678116;84;22337;-58
2022/10/24 05:06:03;;;;;;;6.47;4.67;;;;;;;9.83;100.00;100004.84;1677515;85;21751;-67
2022/10/24 05:08:31;;;;;;;5.90;4.47;;;;;;;9.78;100.00;100005.09;1677882;85;21727;-58
2022/10/24 05:10:59;;;;;;;5.33;3.93;;;;;;;9.78;100.00;100015.51;1677874;85;21681;-57
2022/10/24 05:13:26;;;;;;;4.90;3.80;;;;;;;9.78;100.00;100020.22;1677762;84;21729;-58
2022/10/24 05:15:55;;;;;;;5.60;3.80;;;;;;;9.77;100.00;100018.58;1677854;85;21728;-65
2022/10/24 05:18:23;;;;;;;5.70;3.90;;;;;;;9.72;100.00;100031.34;1677643;85;21760;-58
2022/10/24 05:20:58;;;;;;;4.90;3.63;;;;;;;9.68;100.00;100034.81;1678063;84;21759;-58
2022/10/24 05:23:25;;;;;;;5.87;3.97;;;;;;;9.67;100.00;100040.20;1677944;84;22260;-58
2022/10/24 05:25:52;;;;;;;5.20;3.50;;;;;;;9.78;100.00;100045.44;1677953;84;21732;-58
2022/10/24 05:28:20;;;;;;;6.27;4.10;;;;;;;9.69;100.00;100057.73;1677211;85;21585;-58
2022/10/24 05:30:47;;;;;;;5.53;3.70;;;;;;;9.84;100.00;100060.31;1678239;85;21725;-58
2022/10/24 05:33:15;;;;;;;4.73;3.37;;;;;;;9.72;100.00;100052.17;1678073;84;22179;-58
2022/10/24 05:35:42;;;;;;;5.67;3.90;;;;;;;9.73;100.00;100062.39;1677862;84;22248;-57
2022/10/24 05:38:10;;;;;;;5.90;4.20;;;;;;;9.74;100.00;100065.83;1677285;84;21788;-58
2022/10/24 05:40:39;;;;;;;5.70;4.33;;;;;;;9.77;100.00;100068.04;1678001;84;22576;-59
2022/10/24 05:43:06;;;;;;;6.40;4.57;;;;;;;9.82;100.00;100065.72;1677939;84;21710;-57
2022/10/24 05:45:34;;;;;;;5.27;4.10;;;;;;;9.87;100.00;100067.77;1677802;84;22207;-59
2022/10/24 05:48:04;;;;;;;5.97;4.37;;;;;;;9.88;100.00;100069.38;1677694;84;22241;-61
2022/10/24 05:50:31;;;;;;;6.70;4.80;;;;;;;9.89;100.00;100062.70;1677910;84;21780;-57
2022/10/24 05:52:59;;;;;;;6.83;5.00;;;;;;;9.89;100.00;100062.70;1678024;85;21097;-58
2022/10/24 05:55:27;;;;;;;6.50;4.20;;;;;;;9.86;100.00;100066.96;1678087;85;21696;-58
2022/10/24 05:57:55;;;;;;;6.60;5.27;;;;;;;9.88;100.00;100070.17;1677315;85;21504;-59
2022/10/24 06:00:24;;;;;;;5.97;4.40;;;;;;;9.87;100.00;100063.36;1677827;84;22285;-57
2022/10/24 06:02:51;;;;;;;8.10;5.37;;;;;;;9.90;100.00;100073.91;1677991;84;22127;-58
2022/10/24 06:05:19;;;;;;;7.30;5.43;;;;;;;9.91;100.00;100065.11;1677715;85;21750;-59
2022/10/24 06:07:47;;;;;;;6.37;4.73;;;;;;;9.91;100.00;100067.21;1677566;84;21705;-62
2022/10/24 06:10:15;;;;;;;6.00;4.53;;;;;;;9.95;100.00;100073.66;1677426;84;21028;-58
2022/10/24 06:12:43;;;;;;;5.67;4.43;;;;;;;10.01;100.00;100081.75;1677702;84;21005;-58
2022/10/24 06:15:12;;;;;;;6.53;4.33;;;;;;;10.03;100.00;100078.45;1678027;84;20989;-58
2022/10/24 06:17:40;;;;;;;10.80;7.30;;;;;;;10.02;100.00;100084.16;1677616;85;20895;-68
2022/10/24 06:20:09;;;;;;;7.00;4.93;;;;;;;10.04;100.00;100083.97;1677428;85;21459;-58
2022/10/24 06:22:37;;;;;;;5.67;4.17;;;;;;;10.04;100.00;100083.97;1677804;84;20970;-57
2022/10/24 06:25:05;;;;;;;6.17;4.60;;;;;;;10.05;100.00;100083.00;1677874;84;22332;-58
2022/10/24 06:27:33;;;;;;;6.40;4.73;;;;;;;10.05;100.00;100094.22;1677952;85;21005;-58
2022/10/24 06:30:01;;;;;;;7.07;5.60;;;;;;;10.07;100.00;100095.32;1677430;85;21014;-61
2022/10/24 06:32:29;;;;;;;7.23;4.57;;;;;;;10.01;100.00;100090.37;1677925;84;21177;-60
2022/10/24 06:34:57;;;;;;;6.60;4.30;;;;;;;10.03;100.00;100101.39;1677941;85;21734;-60
2022/10/24 06:37:25;;;;;;;6.30;4.70;;;;;;;10.01;100.00;100096.08;1678086;84;21730;-60
2022/10/24 06:39:52;;;;;;;6.87;4.90;;;;;;;10.01;100.00;100099.98;1677397;84;22159;-73
2022/10/24 06:42:20;;;;;;;6.30;4.63;;;;;;;10.03;100.00;100101.89;1677813;85;21123;-60
2022/10/24 06:44:50;;;;;;;8.23;4.70;;;;;;;10.06;100.00;100105.44;1677542;84;22327;-58
2022/10/24 06:47:18;;;;;;;6.47;4.47;;;;;;;10.15;100.00;100097.34;1678150;84;22349;-58
2022/10/24 06:49:45;;;;;;;5.07;3.53;;;;;;;10.15;100.00;100097.34;1677363;85;20935;-64
2022/10/24 06:52:13;;;;;;;6.50;4.20;;;;;;;10.15;100.00;100097.34;1677973;85;21100;-59
2022/10/24 06:54:42;;;;;;;9.03;5.63;;;;;;;10.21;100.00;100100.99;1677702;84;22175;-59
2022/10/24 06:57:10;;;;;;;7.93;5.10;;;;;;;10.23;100.00;100091.22;1677734;84;21177;-59
2022/10/24 06:59:37;;;;;;;6.70;4.60;;;;;;;10.23;100.00;100091.22;1677736;84;21470;-69
2022/10/24 07:02:04;;;;;;;8.13;5.07;;;;;;;10.21;100.00;100104.41;1678022;84;21097;-58
2022/10/24 07:04:32;;;;;;;7.47;5.53;;;;;;;10.23;100.00;100091.22;1677864;84;21726;-58
2022/10/24 07:06:59;;;;;;;6.93;5.17;;;;;;;10.29;100.00;100097.50;1677851;84;21092;-60
2022/10/24 07:09:27;;;;;;;7.57;4.43;;;;;;;10.40;100.00;100093.91;1678166;84;21524;-70
2022/10/24 07:11:55;;;;;;;7.17;5.20;;;;;;;10.43;100.00;100111.78;1677518;84;21025;-59
2022/10/24 07:14:24;;;;;;;7.50;5.07;;;;;;;10.46;100.00;100103.59;1677833;84;20954;-57
2022/10/24 07:16:52;;;;;;;6.87;5.33;;;;;;;10.48;100.00;100103.40;1678025;85;21535;-58
2022/10/24 07:19:20;;;;;;;6.23;4.43;;;;;;;10.50;100.00;100107.14;1677800;84;21603;-69
2022/10/24 07:21:48;;;;;;;7.90;5.07;;;;;;;10.54;100.00;100097.95;1677393;85;21305;-58
2022/10/24 07:24:16;;;;;;;6.27;4.30;;;;;;;10.54;100.00;100109.69;1677713;85;20958;-59
2022/10/24 07:26:44;;;;;;;9.13;4.80;;;;;;;10.49;100.00;100114.13;1678249;84;21551;-58
2022/10/24 07:29:11;;;;;;;7.27;4.93;;;;;;;10.45;100.00;100115.49;1677899;84;21587;-70
2022/10/24 07:31:39;;;;;;;6.73;4.80;;;;;;;10.46;100.00;100121.04;1677705;85;22263;-59
2022/10/24 07:34:07;;;;;;;6.83;5.10;;;;;;;10.46;100.00;100121.04;1678063;84;21469;-58
2022/10/24 07:36:34;;;;;;;6.37;3.90;;;;;;;10.47;100.00;100125.25;1677738;84;21693;-60
2022/10/24 07:39:01;;;;;;;6.00;3.87;;;;;;;10.47;100.00;100125.25;1678089;85;21552;-60
2022/10/24 07:41:30;;;;;;;5.87;3.80;;;;;;;10.46;100.00;100129.66;1677558;84;21614;-72
2022/10/24 07:43:58;;;;;;;5.93;3.50;;;;;;;10.51;100.00;100126.48;1677954;84;21382;-60
2022/10/24 07:46:26;;;;;;;5.77;4.40;;;;;;;10.56;100.00;100128.03;1677843;85;21787;-60
2022/10/24 07:48:53;;;;;;;6.53;3.63;;;;;;;10.58;100.00;100121.34;1677775;84;20950;-61
2022/10/24 07:51:21;;;;;;;5.27;3.60;;;;;;;10.57;100.00;100127.53;1677610;85;20887;-66
2022/10/24 07:53:49;;;;;;;5.37;3.83;;;;;;;10.63;100.00;100131.52;1677763;84;21545;-60
2022/10/24 07:56:16;;;;;;;6.37;3.60;;;;;;;10.63;100.00;100131.52;1678037;84;20954;-60
2022/10/24 07:58:44;;;;;;;5.30;3.43;;;;;;;10.63;100.00;100135.92;1677729;84;21793;-61
2022/10/24 08:01:16;;;;;;;6.07;3.70;;;;;;;10.64;100.00;100129.20;1677989;84;21698;-60
2022/10/24 08:03:45;;;;;;;5.93;4.33;;;;;;;10.64;100.00;100129.20;1676851;84;22422;-60
2022/10/24 08:06:22;;;;;;;6.37;4.70;;;;;;;10.68;100.00;100141.38;1670607;85;20991;-60
2022/10/24 08:08:50;;;;;;;5.90;4.40;;;;;;;10.72;100.00;100136.13;1649687;86;21614;-60
2022/10/24 08:11:21;;;;;;;6.47;4.30;;;;;;;10.77;100.00;100139.47;1650021;86;21333;-72
2022/10/24 08:13:50;;;;;;;6.20;3.47;;;;;;;10.74;100.00;100142.45;1650173;86;21396;-60
2022/10/24 08:16:23;;;;;;;4.37;2.90;;;;;;;10.72;100.00;100143.95;1650116;85;21018;-60
2022/10/24 08:18:48;;;;;;;5.37;3.22;;;;;;;10.77;100.00;100143.38;1649410;86;20975;-60
2022/10/24 08:21:18;;;;;;;5.33;3.13;;;;;;;10.73;100.00;100152.07;1650479;86;21057;-60
2022/10/24 08:23:47;;;;;;;7.10;3.40;;;;;;;10.70;100.00;100153.74;1649899;86;21902;-58
2022/10/24 08:26:16;;;;;;;4.70;3.20;;;;;;;10.69;100.00;100156.05;1650111;87;21043;-58
2022/10/24 08:28:45;;;;;;;5.97;3.30;;;;;;;10.72;100.00;100156.98;1650488;87;21568;-59
2022/10/24 08:31:15;;;;;;;5.37;3.63;;;;;;;10.77;100.00;100158.52;1649766;86;20983;-60
2022/10/24 08:33:43;;;;;;;6.20;4.17;;;;;;;10.86;100.00;100156.59;1649729;86;21540;-58
2022/10/24 08:36:28;;;;;;;6.03;3.70;;;;;;;10.93;100.00;100159.56;1650119;86;21176;-60
2022/10/24 08:38:56;;;;;;;4.70;3.13;;;;;;;11.01;100.00;100164.34;1650089;87;21520;-59
2022/10/24 08:41:45;;;;;;;5.60;4.10;;;;;;;11.06;100.00;100165.88;1649652;86;21011;-59
2022/10/24 08:44:28;;;;;;;5.73;4.07;;;;;;;11.14;100.00;100176.20;1635244;87;20899;-59
2022/10/24 08:47:24;;;;;;;5.30;3.97;;;;;;;11.20;100.00;100168.91;1649703;87;20959;-59
2022/10/24 08:50:27;;;;;;;4.53;3.33;;;;;;;11.24;100.00;100175.36;1650036;86;21611;-59
2022/10/24 08:53:27;;;;;;;5.53;3.93;;;;;;;11.30;100.00;100173.81;1650016;86;20912;-59
2022/10/24 08:55:56;;;;;;;4.83;3.20;;;;;;;11.30;100.00;100181.14;1650037;87;21442;-59
2022/10/24 08:58:43;;;;;;;5.27;3.57;;;;;;;11.27;100.00;100176.80;1634854;87;21027;-59
2022/10/24 09:01:25;;;;;;;5.93;4.30;;;;;;;11.29;100.00;100173.02;1649578;87;21015;-72
2022/10/24 09:03:52;;;;;;;10.72;7.70;;;;;;;11.33;100.00;100170.33;1648953;85;21336;-59
2022/10/24 09:06:24;;;;;;;7.57;5.10;;;;;;;11.39;100.00;100181.30;1654190;85;21904;-59
2022/10/24 09:08:58;;;;;;;7.33;3.97;;;;;;;11.47;100.00;100189.98;1677418;85;21511;-67
2022/10/24 09:11:48;;;;;;;25.63;9.10;;;;;;;11.51;100.00;100184.69;1677972;85;21124;-59
2022/10/24 09:14:27;;;;;;;7.93;4.20;;;;;;;11.51;100.00;100193.83;1677927;85;21108;-59
2022/10/24 09:17:03;;;;;;;5.93;3.33;;;;;;;11.54;100.00;100196.06;1678023;84;21249;-59
2022/10/24 09:19:30;;;;;;;5.40;3.53;;;;;;;11.48;100.00;100198.11;1651510;85;20907;-60
2022/10/24 09:21:58;;;;;;;5.83;3.87;;;;;;;11.35;100.00;100193.11;1629582;85;20995;-63
2022/10/24 09:24:44;;;;;;;5.77;3.30;;;;;;;11.30;100.00;100191.58;1677697;84;21537;-62
2022/10/24 09:27:24;;;;;;;6.20;3.80;;;;;;;11.31;100.00;100195.80;1678022;84;21421;-59
2022/10/24 09:29:51;;;;;;;6.30;3.70;;;;;;;11.35;100.00;100202.25;1677194;84;21263;-60
2022/10/24 09:32:25;;;;;;;5.17;3.10;;;;;;;11.39;100.00;100205.28;1677512;84;21061;-59
2022/10/24 09:34:52;;;;;;;4.80;2.73;;;;;;;11.48;100.00;100208.55;1677964;84;20962;-59
2022/10/24 09:37:41;;;;;;;5.10;3.43;;;;;;;11.49;100.00;100209.69;1678129;85;21041;-59
2022/10/24 09:40:27;;;;;;;5.33;3.40;;;;;;;11.53;100.00;100201.78;1678132;85;20962;-60
2022/10/24 09:43:02;;;;;;;4.77;3.23;;;;;;;11.59;100.00;100205.42;1678040;84;21144;-59
2022/10/24 09:46:12;;;;;;;6.40;4.07;;;;;;;11.70;100.00;100203.59;1676415;84;21387;-59
2022/10/24 09:48:58;;;;;;;6.07;3.20;;;;;;;11.83;100.00;100197.19;1677470;84;21010;-61
2022/10/24 09:51:35;;;;;;;6.53;4.17;;;;;;;12.00;100.00;100198.16;1677989;85;20966;-59
2022/10/24 09:54:25;;;;;;;5.20;3.60;;;;;;;12.20;100.00;100204.30;1677157;85;21086;-65
2022/10/24 09:57:15;;;;;;;6.65;3.55;;;;;;;12.30;100.00;100208.65;1677976;84;20919;-60
2022/10/24 09:59:48;;;;;;;6.10;3.97;;;;;;;12.39;100.00;100214.03;1677148;84;20970;-61
2022/10/24 10:02:28;;;;;;;5.90;4.00;;;;;;;12.36;100.00;100210.50;1678099;85;21028;-60
2022/10/24 10:05:09;;;;;;;7.23;4.43;;;;;;;12.35;100.00;100208.89;1677309;84;21507;-60
2022/10/24 10:07:39;;;;;;;6.90;4.10;;;;;;;12.29;100.00;100216.20;1662390;85;21439;-60
2022/10/24 10:10:30;;;;;;;7.10;4.93;;;;;;;12.22;100.00;100217.17;1649938;86;21152;-60
2022/10/24 10:13:12;;;;;;;6.30;3.87;;;;;;;12.15;100.00;100218.44;1649511;87;21516;-62
2022/10/24 10:15:46;;;;;;;11.85;8.80;;;;;;;12.09;100.00;100220.53;1650320;86;21030;-60
2022/10/24 10:18:28;;;;;;;7.43;4.40;;;;;;;12.00;100.00;100214.64;1650211;86;21102;-60
2022/10/24 10:21:06;;;;;;;5.07;3.10;;;;;;;11.95;100.00;100214.93;1649833;86;21069;-61
2022/10/24 10:23:53;;;;;;;5.00;3.13;;;;;;;11.90;100.00;100216.31;1649760;86;21786;-60
2022/10/24 10:26:31;;;;;;;5.10;3.20;;;;;;;11.85;100.00;100224.41;1649396;86;21457;-62
2022/10/24 10:29:08;;;;;;;7.07;4.10;;;;;;;11.84;100.00;100223.60;1648921;86;21007;-60
2022/10/24 10:31:45;;;;;;;4.97;3.13;;;;;;;11.83;100.00;100227.22;1643879;86;21073;-59
2022/10/24 10:34:29;;;;;;;4.77;2.93;;;;;;;11.83;100.00;100228.52;1650210;87;21058;-60
2022/10/24 10:37:24;;;;;;;5.37;3.47;;;;;;;11.87;100.00;100226.34;1650141;86;21309;-61
2022/10/24 10:40:19;;;;;;;6.07;3.60;;;;;;;11.89;100.00;100226.47;1649492;85;21490;-61
2022/10/24 10:43:15;;;;;;;6.03;3.40;;;;;;;11.90;100.00;100217.63;1649885;87;20951;-76
2022/10/24 10:46:07;;;;;;;6.27;3.60;;;;;;;11.99;100.00;100223.99;1648773;86;21029;-61
2022/10/24 10:48:57;;;;;;;5.73;3.60;;;;;;;12.06;100.00;100230.06;1650137;87;20999;-61
2022/10/24 10:51:42;;;;;;;5.07;3.17;;;;;;;12.10;100.00;100224.25;1607701;86;21263;-61
2022/10/24 10:54:49;;;;;;;5.57;3.33;;;;;;;12.09;100.00;100227.88;1649903;86;20924;-60
2022/10/24 10:57:23;;;;;;;4.93;3.50;;;;;;;12.11;100.00;100225.05;1649907;85;21497;-77
2022/10/24 11:00:24;;;;;;;4.40;2.73;;;;;;;12.04;100.00;100235.97;1636108;86;21403;-64
2022/10/24 11:03:15;;;;;;;4.30;2.73;;;;;;;12.03;100.00;100240.39;1649767;87;21466;-62
2022/10/24 11:06:12;;;;;;;4.57;2.90;;;;;;;11.98;100.00;100241.48;1650280;86;21054;-60
2022/10/24 11:09:07;;;;;;;4.70;2.97;;;;;;;11.97;100.00;100244.27;1649767;85;21073;-61
2022/10/24 11:11:40;;;;;;;4.87;2.80;;;;;;;12.02;100.00;100251.05;1650022;86;20883;-59
2022/10/24 11:14:31;;;;;;;5.47;3.10;;;;;;;12.01;100.00;100244.19;1649887;87;20940;-67
2022/10/24 11:17:12;;;;;;;6.20;3.70;;;;;;;12.05;100.00;100251.47;1649818;87;21141;-60
2022/10/24 11:20:06;;;;;;;6.00;3.63;;;;;;;12.09;100.00;100242.75;1640453;87;21170;-61
2022/10/24 11:22:39;;;;;;;4.53;2.90;;;;;;;12.12;100.00;100242.34;1650155;87;21102;-60
2022/10/24 11:25:26;;;;;;;4.23;2.70;;;;;;;12.17;100.00;100240.77;1649820;85;20923;-60
2022/10/24 11:28:23;;;;;;;4.83;2.47;;;;;;;12.26;100.00;100240.09;1650097;87;21006;-60
2022/10/24 11:31:12;;;;;;;5.37;2.90;;;;;;;12.32;100.00;100239.33;1649916;86;22006;-60
2022/10/24 11:33:45;;;;;;;5.77;2.67;;;;;;;12.46;100.00;100243.30;1650054;86;22219;-61
2022/10/24 11:36:33;;;;;;;4.80;2.37;;;;;;;12.50;100.00;100244.52;1649709;85;20993;-60
2022/10/24 11:39:36;;;;;;;4.20;2.87;;;;;;;12.53;100.00;100247.55;1616731;86;21102;-60
2022/10/24 11:42:31;;;;;;;4.07;2.87;;;;;;;12.51;100.00;100248.77;1649809;86;21031;-60
2022/10/24 11:45:11;;;;;;;5.30;2.80;;;;;;;12.52;100.00;100245.94;1649956;87;20983;-62
2022/10/24 11:48:04;;;;;;;4.47;2.73;;;;;;;12.54;100.00;100250.48;1649943;86;21458;-60
2022/10/24 11:50:37;;;;;;;5.50;3.47;;;;;;;12.54;100.00;100249.18;1649753;87;20991;-60
2022/10/24 11:53:34;;;;;;;6.40;4.17;;;;;;;12.55;100.00;100247.37;1649885;86;21043;-60